createdAt,value
2018-04-10T00:02:02.903Z,14.93
2018-04-10T00:04:30.462Z,20.67
2018-04-10T00:06:58.042Z,16.03
2018-04-10T00:09:25.912Z,20.70
2018-04-10T00:11:53.711Z,21.23
2018-04-10T00:14:21.252Z,22.17
2018-04-10T00:16:48.804Z,20.40
2018-04-10T00:19:16.317Z,18.60
2018-04-10T00:21:43.847Z,15.53
2018-04-10T00:24:11.430Z,14.40
2018-04-10T00:26:39.016Z,20.03
2018-04-10T00:29:06.637Z,14.40
2018-04-10T00:31:34.448Z,18.93
2018-04-10T00:34:02.155Z,17.40
2018-04-10T00:36:29.923Z,15.10
2018-04-10T00:38:57.574Z,14.80
2018-04-10T00:41:25.145Z,16.77
2018-04-10T00:43:52.996Z,16.10
2018-04-10T00:46:22.036Z,16.57
2018-04-10T00:48:50.352Z,18.33
2018-04-10T00:51:17.879Z,15.27
2018-04-10T00:53:45.661Z,18.00
2018-04-10T00:56:13.209Z,18.73
2018-04-10T00:58:40.959Z,20.77
2018-04-10T01:01:09.351Z,24.70
2018-04-10T01:03:36.990Z,14.93
2018-04-10T01:06:04.543Z,20.03
2018-04-10T01:08:32.088Z,16.80
2018-04-10T01:11:01.167Z,16.93
2018-04-10T01:13:28.741Z,19.77
2018-04-10T01:15:56.361Z,19.83
2018-04-10T01:18:23.917Z,17.27
2018-04-10T01:20:51.465Z,16.07
2018-04-10T01:23:19.071Z,21.13
2018-04-10T01:25:47.382Z,14.47
2018-04-10T01:28:15.709Z,17.00
2018-04-10T01:30:43.303Z,15.73
2018-04-10T01:33:10.883Z,17.63
2018-04-10T01:35:39.181Z,16.87
2018-04-10T01:38:06.759Z,14.80
2018-04-10T01:40:34.307Z,15.97
2018-04-10T01:43:01.819Z,13.47
2018-04-10T01:45:29.355Z,19.17
2018-04-10T01:47:56.924Z,17.93
2018-04-10T01:50:24.463Z,16.67
2018-04-10T01:52:52.022Z,13.87
2018-04-10T01:55:19.586Z,14.70
2018-04-10T01:57:47.172Z,12.73
2018-04-10T02:00:14.807Z,13.97
2018-04-10T02:02:42.345Z,15.07
2018-04-10T02:05:09.901Z,13.37
2018-04-10T02:07:37.464Z,14.57
2018-04-10T02:10:22.540Z,13.80
2018-04-10T02:15:23.850Z,13.37
2018-04-10T02:17:51.391Z,13.77
2018-04-10T02:20:19.496Z,12.17
2018-04-10T02:22:47.795Z,11.37
2018-04-10T02:25:15.357Z,12.63
2018-04-10T02:27:42.924Z,15.90
2018-04-10T02:30:10.458Z,12.90
2018-04-10T02:32:39.961Z,14.77
2018-04-10T02:35:07.558Z,18.97
2018-04-10T02:37:35.165Z,16.83
2018-04-10T02:40:02.685Z,14.70
2018-04-10T02:42:30.209Z,14.47
2018-04-10T02:44:57.759Z,13.43
2018-04-10T02:47:26.063Z,13.73
2018-04-10T02:49:53.642Z,13.50
2018-04-10T02:52:21.182Z,17.00
2018-04-10T02:54:49.533Z,14.30
2018-04-10T02:57:17.847Z,15.83
2018-04-10T02:59:45.453Z,15.97
2018-04-10T03:02:12.992Z,14.17
2018-04-10T03:04:40.545Z,15.20
2018-04-10T03:07:08.123Z,16.57
2018-04-10T03:09:35.687Z,13.97
2018-04-10T03:12:03.991Z,12.67
2018-04-10T03:14:31.526Z,14.33
2018-04-10T03:16:59.090Z,19.17
2018-04-10T03:19:26.622Z,13.53
2018-04-10T03:21:54.344Z,14.73
2018-04-10T03:24:21.891Z,16.70
2018-04-10T03:26:49.447Z,11.67
2018-04-10T03:29:16.966Z,12.90
2018-04-10T03:31:44.478Z,12.60
2018-04-10T03:34:12.035Z,18.70
2018-04-10T03:36:39.627Z,14.50
2018-04-10T03:39:07.869Z,16.20
2018-04-10T03:41:35.883Z,15.43
2018-04-10T03:44:03.667Z,15.90
2018-04-10T03:46:38.093Z,14.53
2018-04-10T03:49:08.625Z,15.63
2018-04-10T03:51:36.247Z,14.57
2018-04-10T03:54:03.824Z,15.53
2018-04-10T03:56:33.054Z,14.93
2018-04-10T03:59:00.594Z,23.50
2018-04-10T04:01:28.719Z,13.53
2018-04-10T04:03:56.264Z,15.10
2018-04-10T04:06:23.795Z,15.23
2018-04-10T04:08:52.140Z,13.53
2018-04-10T04:11:19.653Z,16.03
2018-04-10T04:13:47.195Z,15.70
2018-04-10T04:16:26.607Z,12.30
2018-04-10T04:19:06.095Z,16.23
2018-04-10T04:21:45.549Z,16.30
2018-04-10T04:24:13.075Z,13.60
2018-04-10T04:26:40.643Z,18.00
2018-04-10T04:29:08.232Z,18.10
2018-04-10T04:31:35.859Z,13.93
2018-04-10T04:34:03.413Z,17.60
2018-04-10T04:36:30.957Z,19.53
2018-04-10T04:38:59.283Z,14.70
2018-04-10T04:41:26.839Z,17.10
2018-04-10T04:43:54.488Z,15.67
2018-04-10T04:46:22.020Z,14.87
2018-04-10T04:48:49.607Z,12.43
2018-04-10T04:51:17.166Z,10.67
2018-04-10T04:53:44.708Z,12.73
2018-04-10T04:56:12.287Z,19.83
2018-04-10T04:58:39.859Z,14.30
2018-04-10T05:01:07.419Z,14.57
2018-04-10T05:03:34.954Z,14.23
2018-04-10T05:06:02.498Z,15.90
2018-04-10T05:08:30.032Z,17.13
2018-04-10T05:10:58.348Z,15.40
2018-04-10T05:13:25.950Z,18.60
2018-04-10T05:15:53.491Z,17.20
2018-04-10T05:18:21.035Z,17.73
2018-04-10T05:20:48.557Z,18.07
2018-04-10T05:23:16.217Z,13.73
2018-04-10T05:25:44.541Z,15.20
2018-04-10T05:28:12.092Z,19.87
2018-04-10T05:30:39.647Z,14.37
2018-04-10T05:33:07.185Z,18.77
2018-04-10T05:35:34.781Z,14.50
2018-04-10T05:38:02.386Z,15.60
2018-04-10T05:40:29.925Z,16.43
2018-04-10T05:42:57.477Z,15.63
2018-04-10T05:45:25.060Z,17.60
2018-04-10T05:47:53.379Z,16.30
2018-04-10T05:50:21.803Z,14.17
2018-04-10T05:52:49.384Z,14.13
2018-04-10T05:55:17.691Z,16.90
2018-04-10T05:57:45.315Z,11.80
2018-04-10T06:00:13.644Z,11.83
2018-04-10T06:02:41.181Z,13.57
2018-04-10T06:05:08.725Z,11.97
2018-04-10T06:07:36.294Z,11.33
2018-04-10T06:10:03.830Z,15.10
2018-04-10T06:12:31.389Z,15.47
2018-04-10T06:14:59.721Z,11.77
2018-04-10T06:17:28.024Z,13.63
2018-04-10T06:19:56.503Z,9.17
2018-04-10T06:22:24.082Z,11.13
2018-04-10T06:24:51.664Z,11.90
2018-04-10T06:27:19.249Z,8.60
2018-04-10T06:29:46.789Z,13.13
2018-04-10T06:32:14.311Z,11.10
2018-04-10T06:34:42.636Z,10.90
2018-04-10T06:37:10.176Z,13.67
2018-04-10T06:39:37.719Z,10.67
2018-04-10T06:42:05.233Z,9.40
2018-04-10T06:44:32.791Z,8.07
2018-04-10T06:47:00.387Z,9.73
2018-04-10T06:49:28.007Z,9.90
2018-04-10T06:51:56.281Z,12.87
2018-04-10T06:54:24.629Z,14.30
2018-04-10T06:56:52.191Z,9.70
2018-04-10T06:59:19.786Z,13.93
2018-04-10T07:01:47.353Z,16.43
2018-04-10T07:04:15.743Z,14.40
2018-04-10T07:06:43.373Z,15.63
2018-04-10T07:09:11.142Z,14.43
2018-04-10T07:11:38.735Z,9.10
2018-04-10T07:14:06.286Z,11.27
2018-04-10T07:16:34.612Z,14.57
2018-04-10T07:19:02.162Z,13.03
2018-04-10T07:21:29.712Z,16.23
2018-04-10T07:23:57.238Z,15.10
2018-04-10T07:26:24.853Z,14.70
2018-04-10T07:28:52.444Z,14.53
2018-04-10T07:31:19.973Z,15.10
2018-04-10T07:33:47.533Z,13.07
2018-04-10T07:36:15.101Z,15.07
2018-04-10T07:38:42.661Z,16.53
2018-04-10T07:41:10.196Z,16.03
2018-04-10T07:43:37.779Z,14.17
2018-04-10T07:46:05.343Z,18.70
2018-04-10T07:48:32.906Z,17.20
2018-04-10T07:51:00.437Z,17.40
2018-04-10T07:53:27.997Z,16.23
2018-04-10T07:55:55.540Z,16.60
2018-04-10T07:58:23.083Z,14.47
2018-04-10T08:00:51.487Z,16.77
2018-04-10T08:03:19.072Z,15.93
2018-04-10T08:05:46.616Z,13.63
2018-04-10T08:08:14.157Z,14.33
2018-04-10T08:10:41.829Z,14.07
2018-04-10T08:13:09.377Z,17.90
2018-04-10T08:15:36.966Z,17.40
2018-04-10T08:18:04.492Z,14.40
2018-04-10T08:20:32.099Z,19.53
2018-04-10T08:22:59.681Z,17.83
2018-04-10T08:25:28.042Z,19.70
2018-04-10T08:27:55.611Z,19.67
2018-04-10T08:30:23.174Z,22.57
2018-04-10T08:32:50.760Z,15.33
2018-04-10T08:35:18.363Z,16.03
2018-04-10T08:37:45.953Z,24.40
2018-04-10T08:40:13.481Z,17.90
2018-04-10T08:42:41.057Z,20.20
2018-04-10T08:45:08.647Z,19.10
2018-04-10T08:47:37.139Z,18.27
2018-04-10T08:50:04.680Z,19.07
2018-04-10T08:52:32.996Z,18.13
2018-04-10T08:55:00.553Z,21.40
2018-04-10T08:57:28.161Z,25.97
2018-04-10T08:59:55.711Z,25.50
2018-04-10T09:02:23.274Z,21.90
2018-04-10T09:04:50.816Z,19.60
2018-04-10T09:07:18.410Z,22.63
2018-04-10T09:09:46.001Z,18.77
2018-04-10T09:12:13.687Z,22.27
2018-04-10T09:14:41.259Z,25.80
2018-04-10T09:17:09.533Z,22.17
2018-04-10T09:19:37.113Z,21.10
2018-04-10T09:22:04.677Z,22.33
2018-04-10T09:24:32.230Z,22.00
2018-04-10T09:26:59.804Z,21.33
2018-04-10T09:29:28.187Z,20.00
2018-04-10T09:31:56.518Z,22.80
2018-04-10T09:34:24.107Z,29.87
2018-04-10T09:36:51.689Z,23.37
2018-04-10T09:39:19.234Z,28.77
2018-04-10T09:41:46.792Z,23.47
2018-04-10T09:44:15.254Z,25.50
2018-04-10T09:46:42.803Z,25.43
2018-04-10T09:49:10.365Z,24.63
2018-04-10T09:51:37.930Z,30.40
2018-04-10T09:54:05.548Z,22.10
2018-04-10T09:56:33.068Z,25.37
2018-04-10T09:59:00.683Z,24.90
2018-04-10T10:01:28.267Z,33.77
2018-04-10T10:03:56.665Z,29.60
2018-04-10T10:06:24.192Z,20.80
2018-04-10T10:08:51.789Z,27.17
2018-04-10T10:11:19.352Z,26.10
2018-04-10T10:13:46.959Z,22.17
2018-04-10T10:16:14.527Z,24.90
2018-04-10T10:18:42.113Z,31.23
2018-04-10T10:21:09.728Z,30.53
2018-04-10T10:23:37.276Z,31.37
2018-04-10T10:26:04.839Z,25.90
2018-04-10T10:28:32.392Z,26.50
2018-04-10T10:31:00.001Z,25.50
2018-04-10T10:33:27.591Z,26.50
2018-04-10T10:35:55.902Z,25.83
2018-04-10T10:38:23.456Z,32.73
2018-04-10T10:40:51.003Z,38.87
2018-04-10T10:43:18.568Z,29.03
2018-04-10T10:45:46.110Z,30.43
2018-04-10T10:48:13.732Z,38.40
2018-04-10T10:50:42.077Z,28.47
2018-04-10T10:53:09.613Z,26.27
2018-04-10T10:55:37.161Z,28.23
2018-04-10T10:58:04.710Z,28.80
2018-04-10T11:00:33.044Z,36.70
2018-04-10T11:03:00.588Z,28.63
2018-04-10T11:05:28.132Z,30.07
2018-04-10T11:07:55.688Z,31.57
2018-04-10T11:10:23.327Z,38.03
2018-04-10T11:12:50.963Z,30.10
2018-04-10T11:15:18.590Z,26.20
2018-04-10T11:17:46.185Z,30.07
2018-04-10T11:20:13.796Z,31.83
2018-04-10T11:22:41.360Z,29.47
2018-04-10T11:25:08.888Z,32.00
2018-04-10T11:27:37.216Z,27.13
2018-04-10T11:30:04.807Z,32.13
2018-04-10T11:32:32.383Z,31.10
2018-04-10T11:35:00.709Z,26.37
2018-04-10T11:37:28.275Z,27.50
2018-04-10T11:39:55.886Z,28.73
2018-04-10T11:42:24.214Z,29.33
2018-04-10T11:44:51.751Z,30.37
2018-04-10T11:47:19.420Z,31.33
2018-04-10T11:49:46.973Z,30.00
2018-04-10T11:52:14.524Z,31.63
2018-04-10T11:54:42.121Z,29.90
2018-04-10T11:57:09.642Z,33.57
2018-04-10T11:59:38.159Z,29.97
2018-04-10T12:02:05.756Z,29.20
2018-04-10T12:04:33.359Z,33.60
2018-04-10T12:07:00.991Z,32.37
2018-04-10T12:09:29.306Z,32.67
2018-04-10T12:11:56.898Z,35.20
2018-04-10T12:14:24.461Z,29.30
2018-04-10T12:16:52.015Z,31.13
2018-04-10T12:19:19.544Z,32.97
2018-04-10T12:21:47.111Z,33.80
2018-04-10T12:24:14.670Z,34.70
2018-04-10T12:26:42.217Z,31.13
2018-04-10T12:29:09.773Z,32.53
2018-04-10T12:31:37.410Z,32.47
2018-04-10T12:34:05.013Z,30.77
2018-04-10T12:36:32.587Z,34.27
2018-04-10T12:39:00.174Z,31.20
2018-04-10T12:41:27.723Z,29.53
2018-04-10T12:43:55.358Z,36.10
2018-04-10T12:46:22.966Z,30.63
2018-04-10T12:48:50.628Z,33.20
2018-04-10T12:51:18.212Z,34.67
2018-04-10T12:53:45.749Z,30.70
2018-04-10T12:56:13.311Z,29.03
2018-04-10T12:58:40.841Z,33.00
2018-04-10T13:01:08.397Z,28.27
2018-04-10T13:03:36.268Z,32.07
2018-04-10T13:06:04.727Z,31.17
2018-04-10T13:08:32.328Z,33.27
2018-04-10T13:10:59.911Z,29.73
2018-04-10T13:13:27.449Z,31.83
2018-04-10T13:15:54.989Z,36.63
2018-04-10T13:18:23.323Z,31.57
2018-04-10T13:20:50.866Z,32.80
2018-04-10T13:23:18.481Z,30.63
2018-04-10T13:25:47.096Z,27.33
2018-04-10T13:28:14.667Z,32.47
2018-04-10T13:30:42.201Z,28.67
2018-04-10T13:33:09.778Z,23.33
2018-04-10T13:35:37.314Z,28.10
2018-04-10T13:38:04.890Z,22.83
2018-04-10T13:40:32.446Z,25.20
2018-04-10T13:42:59.990Z,31.37
2018-04-10T13:45:27.573Z,24.90
2018-04-10T13:47:55.135Z,25.87
2018-04-10T13:50:22.677Z,24.03
2018-04-10T13:52:50.296Z,22.10
2018-04-10T13:55:18.028Z,18.73
2018-04-10T13:57:45.789Z,20.43
2018-04-10T14:00:13.372Z,18.20
2018-04-10T14:02:40.919Z,15.70
2018-04-10T14:05:08.522Z,21.80
2018-04-10T14:07:36.072Z,12.77
2018-04-10T14:10:03.647Z,15.73
2018-04-10T14:12:31.213Z,14.30
2018-04-10T14:14:59.534Z,14.77
2018-04-10T14:17:27.072Z,14.63
2018-04-10T14:19:54.588Z,13.43
2018-04-10T14:22:22.157Z,13.80
2018-04-10T14:24:50.495Z,12.53
2018-04-10T14:27:18.129Z,13.77
2018-04-10T14:29:45.660Z,12.17
2018-04-10T14:32:13.971Z,11.43
2018-04-10T14:34:43.585Z,10.63
2018-04-10T14:37:11.145Z,13.63
2018-04-10T14:39:38.710Z,14.07
2018-04-10T14:42:06.243Z,8.03
2018-04-10T14:44:33.841Z,8.87
2018-04-10T14:47:01.470Z,7.83
2018-04-10T14:49:29.019Z,6.73
2018-04-10T14:51:56.561Z,5.80
2018-04-10T14:54:24.253Z,7.37
2018-04-10T14:56:51.812Z,7.13
2018-04-10T14:59:19.420Z,7.03
2018-04-10T15:01:46.960Z,6.13
2018-04-10T15:04:14.518Z,6.10
2018-04-10T15:06:42.089Z,8.60
2018-04-10T15:09:09.639Z,7.80
2018-04-10T15:11:37.228Z,12.93
2018-04-10T15:14:04.753Z,8.80
2018-04-10T15:16:32.329Z,12.23
2018-04-10T15:18:59.877Z,13.53
2018-04-10T15:21:27.490Z,8.73
2018-04-10T15:23:55.106Z,5.87
2018-04-10T15:26:22.638Z,6.37
2018-04-10T15:28:50.193Z,9.53
2018-04-10T15:31:17.745Z,7.90
2018-04-10T15:33:45.377Z,8.63
2018-04-10T15:36:12.909Z,11.10
2018-04-10T15:38:40.509Z,9.33
2018-04-10T15:41:08.052Z,9.17
2018-04-10T15:43:35.641Z,9.93
2018-04-10T15:46:03.212Z,8.57
2018-04-10T15:48:30.768Z,9.03
2018-04-10T15:50:59.090Z,11.37
2018-04-10T15:53:26.706Z,10.83
2018-04-10T15:55:54.308Z,7.97
2018-04-10T15:58:21.862Z,14.23
2018-04-10T16:00:49.416Z,14.30
2018-04-10T16:03:17.001Z,9.67
2018-04-10T16:05:45.360Z,10.27
2018-04-10T16:08:12.953Z,10.97
2018-04-10T16:10:40.620Z,15.27
2018-04-10T16:13:08.213Z,9.77
2018-04-10T16:15:36.353Z,20.43
2018-04-10T16:18:03.856Z,13.03
2018-04-10T16:20:31.485Z,10.03
2018-04-10T16:23:00.281Z,10.40
2018-04-10T16:25:27.879Z,9.77
2018-04-10T16:27:55.578Z,10.80
2018-04-10T16:30:23.174Z,10.73
2018-04-10T16:32:50.730Z,10.23
2018-04-10T16:35:18.295Z,11.43
2018-04-10T16:37:46.083Z,6.90
2018-04-10T16:40:13.733Z,8.13
2018-04-10T16:42:41.293Z,9.03
2018-04-10T16:45:08.901Z,10.13
2018-04-10T16:47:36.440Z,9.60
2018-04-10T16:50:04.764Z,12.20
2018-04-10T16:52:32.360Z,9.23
2018-04-10T16:55:00.720Z,10.83
2018-04-10T16:57:28.358Z,7.97
2018-04-10T16:59:55.918Z,13.90
2018-04-10T17:02:23.521Z,7.40
2018-04-10T17:04:51.134Z,7.67
2018-04-10T17:07:18.712Z,9.17
2018-04-10T17:09:46.291Z,8.40
2018-04-10T17:12:13.911Z,9.97
2018-04-10T17:14:41.489Z,12.67
2018-04-10T17:17:09.107Z,12.40
2018-04-10T17:19:36.655Z,13.93
2018-04-10T17:22:04.205Z,13.27
2018-04-10T17:24:31.808Z,9.47
2018-04-10T17:26:59.383Z,11.80
2018-04-10T17:29:26.958Z,10.63
2018-04-10T17:31:54.748Z,12.93
2018-04-10T17:34:23.395Z,10.53
2018-04-10T17:36:51.034Z,17.57
2018-04-10T17:39:18.654Z,13.13
2018-04-10T17:41:47.023Z,12.50
2018-04-10T17:44:14.601Z,10.50
2018-04-10T17:46:42.285Z,16.47
2018-04-10T17:49:09.864Z,17.97
2018-04-10T17:51:37.479Z,15.17
2018-04-10T17:54:05.026Z,11.53
2018-04-10T17:56:33.751Z,12.67
2018-04-10T17:59:01.381Z,13.93
2018-04-10T18:01:28.934Z,12.80
2018-04-10T18:03:57.366Z,11.43
2018-04-10T18:06:24.984Z,14.47
2018-04-10T18:08:52.680Z,13.87
2018-04-10T18:11:20.298Z,10.63
2018-04-10T18:13:48.612Z,10.03
2018-04-10T18:16:16.215Z,14.13
2018-04-10T18:18:43.879Z,11.60
2018-04-10T18:21:11.609Z,15.40
2018-04-10T18:23:39.212Z,14.27
2018-04-10T18:26:07.535Z,10.47
2018-04-10T18:28:35.352Z,12.10
2018-04-10T18:31:02.981Z,11.27
2018-04-10T18:33:30.634Z,15.40
2018-04-10T18:35:58.335Z,14.60
2018-04-10T18:38:26.048Z,11.70
2018-04-10T18:40:53.612Z,14.23
2018-04-10T18:43:21.270Z,11.73
2018-04-10T18:45:49.733Z,11.63
2018-04-10T18:48:17.327Z,14.93
2018-04-10T18:50:44.999Z,13.47
2018-04-10T18:53:13.239Z,10.77
2018-04-10T18:55:40.838Z,14.53
2018-04-10T18:58:08.945Z,11.03
2018-04-10T19:00:37.062Z,12.07
2018-04-10T19:03:04.801Z,10.07
2018-04-10T19:05:32.588Z,12.83
2018-04-10T19:08:00.323Z,38.47
2018-04-10T19:10:30.194Z,16.80
2018-04-10T19:12:57.893Z,18.17
2018-04-10T19:15:25.573Z,16.07
2018-04-10T19:17:53.657Z,19.37
2018-04-10T19:20:22.990Z,13.43
2018-04-10T19:22:50.795Z,12.47
2018-04-10T19:25:18.622Z,15.37
2018-04-10T19:27:48.392Z,13.63
2018-04-10T19:30:19.805Z,14.13
2018-04-10T19:32:48.519Z,14.10
2018-04-10T19:35:16.812Z,12.80
2018-04-10T19:37:48.195Z,12.53
2018-04-10T19:40:16.081Z,16.90
2018-04-10T19:42:44.461Z,14.23
2018-04-10T19:45:13.094Z,13.00
2018-04-10T19:47:43.310Z,11.43
2018-04-10T19:50:11.300Z,11.53
2018-04-10T19:52:39.530Z,10.60
2018-04-10T19:55:07.721Z,13.90
2018-04-10T19:57:36.364Z,11.07
2018-04-10T20:00:04.279Z,17.20
2018-04-10T20:02:32.069Z,10.87
2018-04-10T20:05:00.405Z,18.07
2018-04-10T20:07:28.029Z,12.37
2018-04-10T20:09:55.931Z,14.43
2018-04-10T20:12:23.894Z,12.63
2018-04-10T20:14:54.857Z,13.23
2018-04-10T20:17:22.666Z,16.43
2018-04-10T20:19:51.056Z,15.90
2018-04-10T20:22:19.643Z,13.70
2018-04-10T20:24:51.075Z,12.30
2018-04-10T20:27:19.175Z,12.97
2018-04-10T20:29:46.988Z,15.27
2018-04-10T20:32:14.555Z,13.80
2018-04-10T20:34:42.217Z,19.20
2018-04-10T20:37:10.301Z,16.57
2018-04-10T20:39:38.472Z,14.87
2018-04-10T20:42:06.196Z,13.90
2018-04-10T20:44:35.546Z,14.77
2018-04-10T20:47:03.252Z,15.63
2018-04-10T20:49:30.816Z,10.77
2018-04-10T20:51:58.420Z,13.40
2018-04-10T20:54:29.858Z,11.20
2018-04-10T20:56:57.832Z,15.27
2018-04-10T20:59:27.056Z,11.17
2018-04-10T21:01:57.372Z,11.27
2018-04-10T21:04:25.544Z,13.73
2018-04-10T21:06:53.889Z,11.57
2018-04-10T21:09:22.125Z,12.13
2018-04-10T21:11:50.827Z,16.27
2018-04-10T21:14:20.182Z,12.43
2018-04-10T21:16:47.790Z,13.73
2018-04-10T21:19:16.749Z,21.57
2018-04-10T21:21:44.592Z,18.63
2018-04-10T21:24:12.186Z,21.03
2018-04-10T21:26:40.002Z,27.63
2018-04-10T21:29:07.568Z,19.97
2018-04-10T21:31:35.254Z,27.40
2018-04-10T21:34:03.023Z,30.60
2018-04-10T21:36:30.658Z,27.80
2018-04-10T21:38:58.444Z,24.77
2018-04-10T21:41:26.426Z,27.53
2018-04-10T21:43:55.042Z,22.10
2018-04-10T21:46:22.941Z,21.63
2018-04-10T21:48:50.614Z,24.37
2018-04-10T21:51:18.181Z,18.47
2018-04-10T21:53:46.621Z,17.33
2018-04-10T21:56:14.251Z,23.63
2018-04-10T21:58:42.019Z,18.50
2018-04-10T22:01:10.456Z,17.43
2018-04-10T22:03:38.691Z,14.87
2018-04-10T22:06:06.324Z,11.37
2018-04-10T22:08:33.937Z,11.80
2018-04-10T22:11:01.512Z,12.20
2018-04-10T22:13:29.059Z,15.23
2018-04-10T22:15:56.704Z,13.30
2018-04-10T22:18:24.280Z,13.67
2018-04-10T22:20:51.998Z,22.30
2018-04-10T22:23:19.614Z,14.07
2018-04-10T22:25:48.992Z,13.67
2018-04-10T22:28:16.587Z,15.27
2018-04-10T22:30:45.206Z,15.13
2018-04-10T22:33:12.837Z,12.17
2018-04-10T22:35:40.498Z,11.80
2018-04-10T22:38:09.237Z,11.40
2018-04-10T22:40:37.562Z,11.07
2018-04-10T22:43:05.349Z,10.60
2018-04-10T22:45:33.338Z,11.90
2018-04-10T22:48:00.935Z,12.93
2018-04-10T22:50:28.498Z,10.63
2018-04-10T22:52:56.124Z,11.87
2018-04-10T22:55:23.746Z,12.83
2018-04-10T22:57:51.324Z,11.27
2018-04-10T23:03:34.898Z,13.17
2018-04-10T23:06:02.485Z,12.87
2018-04-10T23:08:30.829Z,12.57
2018-04-10T23:10:58.798Z,16.73
2018-04-10T23:13:26.340Z,17.13
2018-04-10T23:15:53.926Z,17.80
2018-04-10T23:18:21.464Z,14.93
2018-04-10T23:20:49.059Z,13.07
2018-04-10T23:23:16.635Z,12.43
2018-04-10T23:25:44.219Z,9.83
2018-04-10T23:28:12.053Z,12.40
2018-04-10T23:30:39.604Z,9.73
2018-04-10T23:33:07.162Z,9.07
2018-04-10T23:35:34.697Z,13.37
2018-04-10T23:38:02.266Z,14.03
2018-04-10T23:40:29.803Z,13.53
2018-04-10T23:42:57.323Z,8.80
2018-04-10T23:45:24.853Z,9.50
2018-04-10T23:47:52.512Z,9.37
2018-04-10T23:50:20.806Z,8.27
2018-04-10T23:52:48.429Z,8.40
2018-04-10T23:55:15.950Z,7.77
2018-04-10T23:57:44.225Z,8.07
